WetterOnline ( https://www.wetteronline.de )

Wetter aktuell Höxter

Aktuelles Wetter: Lügde-Paenbruch (260m)

6-stündlich | Neueste Meldungen
Ortszeit Temperatur Wetter
Mo, 21.10. 20:00 14.3° C bewölkt
Mo, 21.10. 14:00 17.6° C leicht bewölkt
Mo, 21.10. 8:00 12.1° C bedeckt
Mo, 21.10. 2:00 12.1° C Nebel
So, 20.10. 20:00 12.8° C Sprühregen
So, 20.10. 14:00 12.3° C bedeckt
So, 20.10. 8:00 10.8° C Sprühregen
So, 20.10. 2:00 11.3° C Regen
Ortszeit Temperatur Wetter
Di, 22.10. 0:00 10.8° C bewölkt
Mo, 21.10. 23:50 10.8° C bewölkt
Mo, 21.10. 23:40 10.2° C bedeckt
Mo, 21.10. 23:30 10.8° C bewölkt
Mo, 21.10. 23:20 10.8° C bewölkt
Mo, 21.10. 23:10 10.4° C bedeckt
Mo, 21.10. 23:00 11.0° C bedeckt
Mo, 21.10. 22:30 11.0° C leicht bewölkt
Mo, 21.10. 22:00 11.6° C leicht bewölkt
Mo, 21.10. 21:30 12.8° C fast wolkenlos
Mo, 21.10. 21:00 13.3° C bewölkt
Ortszeit Relative Feuchte Sichtweite
Mo, 21.10. 20:00 83% >70 km
Mo, 21.10. 14:00 79% 65 km
Mo, 21.10. 8:00 100% 22 km
Mo, 21.10. 2:00 100% 100 m
So, 20.10. 20:00 100% 10 km
So, 20.10. 14:00 97% 55 km
So, 20.10. 8:00 100% 3.7 km
So, 20.10. 2:00 97% 7 km
Ortszeit Relative Feuchte Sichtweite
Di, 22.10. 0:00 92% 55 km
Mo, 21.10. 23:50 92% -
Mo, 21.10. 23:40 96% -
Mo, 21.10. 23:30 92% 55 km
Mo, 21.10. 23:20 92% -
Mo, 21.10. 23:10 92% -
Mo, 21.10. 23:00 91% 70 km
Mo, 21.10. 22:30 89% 65 km
Mo, 21.10. 22:00 85% >70 km
Mo, 21.10. 21:30 83% >70 km
Mo, 21.10. 21:00 88% >70 km
Ortszeit Niederschlagsmenge Niederschlagsart
Mo, 21.10. 20:00 0.1 l/m2 in 12 Std. -
Mo, 21.10. 14:00 0.1 l/m2 in 6 Std. Regen
Mo, 21.10. 8:00 0.5 l/m2 in 12 Std. Regen
Mo, 21.10. 2:00 0.5 l/m2 in 6 Std. Regen
So, 20.10. 20:00 4 l/m2 in 12 Std. Regen
So, 20.10. 14:00 0.2 l/m2 in 6 Std. Regen
So, 20.10. 8:00 8 l/m2 in 12 Std. Regen
So, 20.10. 2:00 5 l/m2 in 6 Std. Regen
Ortszeit Niederschlagsmenge Niederschlagsart
Di, 22.10. 0:00 0.0 l/m2 in 1 Std. -
Mo, 21.10. 23:50 keine Meldung -
Mo, 21.10. 23:40 keine Meldung -
Mo, 21.10. 23:30 0.0 l/m2 in 1 Std. -
Mo, 21.10. 23:20 keine Meldung -
Mo, 21.10. 23:10 keine Meldung -
Mo, 21.10. 23:00 0.0 l/m2 in 1 Std. -
Mo, 21.10. 22:30 0.0 l/m2 in 1 Std. -
Mo, 21.10. 22:00 0.0 l/m2 in 1 Std. -
Mo, 21.10. 21:30 0.0 l/m2 in 1 Std. -
Mo, 21.10. 21:00 0.0 l/m2 in 1 Std. -
Ortszeit Stärke Spitze Richtung
km/h Bft. km/h Grad Sektor
Mo, 21.10. 20:00 7 2 25 200° S
Mo, 21.10. 14:00 14 3 32 200° S
Mo, 21.10. 8:00 4 1 18 130° SO
Mo, 21.10. 2:00 4 1 14 150° SO
So, 20.10. 20:00 7 2 14 350° N
So, 20.10. 14:00 7 2 14 30° NO
So, 20.10. 8:00 4 1 11 50° NO
So, 20.10. 2:00 0 0 25 - -
Ortszeit Stärke Spitze Richtung
km/h Bft. km/h Grad Sektor
Di, 22.10. 0:00 6 1 11 190° S
Mo, 21.10. 23:50 6 1 - 190° S
Mo, 21.10. 23:40 6 1 - 200° S
Mo, 21.10. 23:30 7 2 11 240° SW
Mo, 21.10. 23:20 7 2 - 240° SW
Mo, 21.10. 23:10 7 2 - 250° W
Mo, 21.10. 23:00 7 2 14 230° SW
Mo, 21.10. 22:30 9 2 11 250° W
Mo, 21.10. 22:00 7 2 14 270° W
Mo, 21.10. 21:30 6 1 13 250° W
Mo, 21.10. 21:00 6 1 13 220° SW
Ortszeit Untergrenze Bedeckung Gattung
total tief tief mittel hoch
Mo, 21.10. 20:00 990 m 8/8 5/8 - - -
Mo, 21.10. 14:00 4200 m 3/8 3/8 - - -
Mo, 21.10. 8:00 3000 m 8/8 8/8 - - -
Mo, 21.10. 2:00 <30 m 7/8 0/8 - - -
So, 20.10. 20:00 60 m 8/8 8/8 - - -
So, 20.10. 14:00 210 m 8/8 8/8 - - -
So, 20.10. 8:00 90 m 7/8 7/8 - - -
So, 20.10. 2:00 300 m 7/8 7/8 - - -
Ortszeit Bedeckungsgrad in Achtel und Wolkenuntergrenze
Di, 22.10. 0:00 1(3000m) 7(4500m) 7(5100m)
Mo, 21.10. 23:50 1(3000m) 7(4500m) 7(5100m)
Mo, 21.10. 23:40 8(3900m) 8(5400m)
Mo, 21.10. 23:30 7(4200m) 7(5700m) 7(5400m)
Mo, 21.10. 23:20 7(4200m) 7(5700m)
Mo, 21.10. 23:10 8(4200m)
Mo, 21.10. 23:00 3(3900m) 5(4800m) 8(5400m)
Mo, 21.10. 22:30 4(5700m)
Mo, 21.10. 22:00 4(8700m)
Mo, 21.10. 21:30 1(1050m)
Mo, 21.10. 21:00 6(930m) 7(9000m) 6(9000m)
Ortszeit Luftdruck NN (hPa) Tendenz (hPa in 3 Std.)
Mo, 21.10. 20:00 1020 + 2,0
Mo, 21.10. 14:00 1017 + 1,4
Mo, 21.10. 8:00 1014 + 1,6
Mo, 21.10. 2:00 1012 + 2,3
So, 20.10. 20:00 1010 + 0,5
So, 20.10. 14:00 1010 0,0
So, 20.10. 8:00 1009 + 0,8
So, 20.10. 2:00 1008 + 0,3
Ortszeit Luftdruck NN (hPa) Tendenz (hPa in 3 Std.)
Di, 22.10. 0:00 1022 + 0,9
Mo, 21.10. 23:50 1022 keine Meldung
Mo, 21.10. 23:40 1022 keine Meldung
Mo, 21.10. 23:30 1022 + 1,0
Mo, 21.10. 23:20 1022 keine Meldung
Mo, 21.10. 23:10 1022 keine Meldung
Mo, 21.10. 23:00 1022 + 1,5
Mo, 21.10. 22:30 1022 + 1,8
Mo, 21.10. 22:00 1021 + 1,5
Mo, 21.10. 21:30 1021 + 2,3
Mo, 21.10. 21:00 1021 + 2,5
Ortszeit Schneehöhe (cm)
Mo, 21.10. 20:00 0
Mo, 21.10. 14:00 0
Mo, 21.10. 8:00 0
Mo, 21.10. 2:00 0
So, 20.10. 20:00 0
So, 20.10. 14:00 0
So, 20.10. 8:00 0
So, 20.10. 2:00 0
Ortszeit Schneehöhe (cm)
Di, 22.10. 0:00 0
Mo, 21.10. 23:50 0
Mo, 21.10. 23:40 0
Mo, 21.10. 23:30 0
Mo, 21.10. 23:20 0
Mo, 21.10. 23:10 0
Mo, 21.10. 23:00 0
Mo, 21.10. 22:30 0
Mo, 21.10. 22:00 0
Mo, 21.10. 21:30 0
Mo, 21.10. 21:00 0
Link zu dieser Seite / Seite empfehlen

Das Wetter in ...